Time;durP1;ratioP1;P1;durP2;ratioP2;P2;SDS_P1;SDS_P2;PMS_P1;PMS_P2;Temp;Humidity;BMP_temperature;BMP_pressure;BME280_temperature;BME280_humidity;BME280_pressure;Samples;Min_cycle;Max_cycle;Signal;HPM_P1;HPM_P2
2021/06/22 00:01:36;;;;;;;115.37;15.95;;;;;;;22.42;76.28;99336.99;1643374;87;22016;-71
2021/06/22 00:04:13;;;;;;;111.65;15.93;;;;;;;22.39;76.58;99335.00;1676177;85;21055;-70
2021/06/22 00:06:39;;;;;;;98.00;16.48;;;;;;;22.35;76.80;99332.20;1662664;84;21116;-71
2021/06/22 00:09:06;;;;;;;102.85;15.95;;;;;;;22.35;76.87;99329.99;1643345;87;21202;-70
2021/06/22 00:11:32;;;;;;;101.00;14.15;;;;;;;22.38;76.87;99331.39;1643883;87;21094;-70
2021/06/22 00:13:58;;;;;;;98.97;15.93;;;;;;;22.41;76.73;99335.41;1680605;85;21765;-71
2021/06/22 00:16:25;;;;;;;114.72;15.10;;;;;;;22.42;76.67;99332.78;1680443;85;21019;-70
2021/06/22 00:18:52;;;;;;;106.10;15.75;;;;;;;22.44;76.53;99334.59;1679922;85;21051;-71
2021/06/22 00:21:19;;;;;;;117.53;17.00;;;;;;;22.45;76.42;99326.35;1680402;85;21054;-70
2021/06/22 00:23:51;;;;;;;116.15;18.50;;;;;;;22.45;76.33;99327.76;1681062;83;21117;-70
2021/06/22 00:26:25;;;;;;;104.32;16.15;;;;;;;22.43;76.36;99325.17;1681506;84;21139;-70
2021/06/22 00:28:51;;;;;;;115.52;17.30;;;;;;;22.36;76.72;99330.20;1681021;85;21119;-70
2021/06/22 00:31:18;;;;;;;96.95;15.40;;;;;;;22.34;76.91;99331.21;1676498;83;20999;-71
2021/06/22 00:33:45;;;;;;;99.10;15.05;;;;;;;22.32;76.91;99334.42;1674192;85;21590;-71
2021/06/22 00:36:12;;;;;;;99.75;15.32;;;;;;;22.33;76.80;99332.43;1674657;84;21071;-71
2021/06/22 00:38:40;;;;;;;123.02;18.15;;;;;;;22.33;76.55;99335.23;1675227;85;21125;-70
2021/06/22 00:41:07;;;;;;;112.65;17.32;;;;;;;22.33;76.40;99331.80;1679385;84;21164;-71
2021/06/22 00:43:40;;;;;;;118.40;18.65;;;;;;;22.25;76.49;99332.44;1674188;84;21626;-70
2021/06/22 00:46:07;;;;;;;98.70;17.37;;;;;;;22.23;76.51;99327.02;1674982;85;21091;-71
2021/06/22 00:48:34;;;;;;;96.67;14.73;;;;;;;22.23;76.55;99324.22;1674391;85;21403;-70
2021/06/22 00:51:00;;;;;;;95.75;15.88;;;;;;;22.23;76.66;99327.02;1691703;83;21819;-70
2021/06/22 00:53:27;;;;;;;113.00;16.87;;;;;;;22.18;76.76;99317.02;1661619;86;21584;-71
2021/06/22 00:55:55;;;;;;;76.50;14.03;;;;;;;22.12;76.83;99317.25;1661199;86;21087;-70
2021/06/22 00:58:30;;;;;;;101.25;15.00;;;;;;;22.09;76.86;99322.27;1658497;86;21516;-72
2021/06/22 01:00:59;;;;;;;91.40;15.63;;;;;;;22.09;76.42;99324.45;1647022;86;21616;-71
2021/06/22 01:03:27;;;;;;;109.10;17.95;;;;;;;22.08;76.10;99317.25;1654394;86;21107;-71
2021/06/22 01:05:56;;;;;;;81.00;15.38;;;;;;;22.06;76.13;99315.45;1660608;86;21091;-71
2021/06/22 01:08:22;;;;;;;100.22;16.85;;;;;;;22.06;76.27;99314.67;1661689;86;21061;-71
2021/06/22 01:10:49;;;;;;;86.82;15.95;;;;;;;22.05;76.31;99313.05;1661024;86;21000;-71
2021/06/22 01:13:16;;;;;;;99.25;16.87;;;;;;;22.04;76.32;99319.25;1661199;86;21026;-71
2021/06/22 01:15:44;;;;;;;91.92;14.50;;;;;;;22.05;76.24;99325.08;1661118;86;21136;-72
2021/06/22 01:18:10;;;;;;;91.45;15.10;;;;;;;22.05;76.16;99326.48;1645427;86;20962;-71
2021/06/22 01:20:41;;;;;;;88.17;16.40;;;;;;;22.05;75.66;99330.69;1664967;85;21000;-71
2021/06/22 01:23:08;;;;;;;123.18;16.93;;;;;;;22.01;75.22;99326.48;1646090;87;21092;-71
2021/06/22 01:25:41;;;;;;;124.47;17.10;;;;;;;21.98;75.11;99318.88;1694433;83;20965;-71
2021/06/22 01:28:09;;;;;;;116.37;17.17;;;;;;;21.92;75.12;99315.49;1655114;86;21087;-71
2021/06/22 01:30:39;;;;;;;96.12;13.95;;;;;;;21.82;75.29;99305.28;1658164;86;21418;-71
2021/06/22 01:33:06;;;;;;;109.78;16.75;;;;;;;21.72;75.84;99301.85;1650928;86;21552;-71
2021/06/22 01:35:33;;;;;;;126.30;18.42;;;;;;;21.65;76.14;99295.06;1650705;86;21568;-71
2021/06/22 01:38:06;;;;;;;136.52;20.35;;;;;;;21.60;76.54;99286.25;1651653;86;21024;-71
2021/06/22 01:40:47;;;;;;;113.35;18.10;;;;;;;21.52;77.02;99285.46;1675986;85;21138;-71
2021/06/22 01:43:16;;;;;;;79.47;14.90;;;;;;;21.46;77.30;99280.07;1691805;83;20994;-71
2021/06/22 01:45:46;;;;;;;104.65;16.55;;;;;;;21.47;77.21;99277.45;1692076;83;21061;-72
2021/06/22 01:48:14;;;;;;;106.92;16.90;;;;;;;21.50;77.11;99273.26;1659620;86;21019;-71
2021/06/22 01:50:42;;;;;;;126.87;17.30;;;;;;;21.53;76.90;99273.04;1660122;86;20984;-71
2021/06/22 01:53:10;;;;;;;141.25;19.87;;;;;;;21.54;76.92;99267.66;1650890;86;21796;-71
2021/06/22 01:55:39;;;;;;;116.90;18.90;;;;;;;21.51;77.28;99260.05;1661381;86;21564;-70
2021/06/22 01:58:11;;;;;;;108.57;17.23;;;;;;;21.45;77.73;99263.05;1648853;86;21227;-72
2021/06/22 02:00:57;;;;;;;130.12;17.95;;;;;;;21.42;77.94;99263.25;1659835;86;21495;-72
2021/06/22 02:03:27;;;;;;;124.10;17.67;;;;;;;21.42;77.89;99267.46;1654802;86;21043;-71
2021/06/22 02:05:54;;;;;;;117.72;19.52;;;;;;;21.46;77.77;99286.45;1651985;86;21131;-71
2021/06/22 02:08:24;;;;;;;110.20;17.23;;;;;;;21.50;77.74;99290.66;1664206;84;21495;-71
2021/06/22 02:10:52;;;;;;;108.25;16.37;;;;;;;21.51;77.67;99289.48;1661046;86;21027;-71
2021/06/22 02:13:39;;;;;;;107.17;18.73;;;;;;;21.53;77.50;99288.45;1659455;86;21031;-71
2021/06/22 02:16:08;;;;;;;112.62;16.20;;;;;;;21.57;77.50;99289.86;1660926;86;21132;-72
2021/06/22 02:18:34;;;;;;;107.17;19.05;;;;;;;21.57;77.52;99291.26;1661752;86;21128;-71
2021/06/22 02:21:04;;;;;;;128.97;18.85;;;;;;;21.57;77.46;99287.86;1649437;86;21047;-71
2021/06/22 02:23:31;;;;;;;119.37;17.27;;;;;;;21.56;77.37;99276.47;1661031;86;21528;-72
2021/06/22 02:26:01;;;;;;;105.47;18.65;;;;;;;21.40;77.68;99274.87;1646190;86;21067;-71
2021/06/22 02:28:27;;;;;;;119.57;17.90;;;;;;;21.32;78.20;99273.86;1661058;86;21070;-72
2021/06/22 02:30:54;;;;;;;100.35;17.90;;;;;;;21.30;78.44;99271.47;1663646;85;21599;-71
2021/06/22 02:33:23;;;;;;;100.55;15.80;;;;;;;21.30;78.66;99272.86;1671765;85;21432;-71
2021/06/22 02:35:51;;;;;;;94.58;14.98;;;;;;;21.33;78.77;99272.06;1672017;85;21043;-72
2021/06/22 02:38:19;;;;;;;96.12;16.48;;;;;;;21.37;78.76;99265.87;1671168;85;21086;-71
2021/06/22 02:40:48;;;;;;;104.60;19.20;;;;;;;21.43;78.64;99263.45;1671917;85;21097;-71
2021/06/22 02:43:14;;;;;;;82.60;12.68;;;;;;;21.48;78.54;99260.23;1658092;85;21066;-71
2021/06/22 02:45:41;;;;;;;107.80;16.65;;;;;;;21.55;78.44;99259.44;1658537;84;21911;-71
2021/06/22 02:48:10;;;;;;;109.55;16.35;;;;;;;21.61;78.20;99261.23;1658375;85;21288;-72
2021/06/22 02:50:39;;;;;;;91.90;15.40;;;;;;;21.68;78.08;99264.63;1669703;84;21065;-71
2021/06/22 02:53:10;;;;;;;94.25;16.60;;;;;;;21.73;77.96;99269.83;1658426;85;21007;-72
2021/06/22 02:55:39;;;;;;;117.53;21.25;;;;;;;21.77;77.73;99271.42;1671703;85;21165;-72
2021/06/22 02:58:07;;;;;;;93.97;16.82;;;;;;;21.82;77.63;99270.23;1670427;85;21106;-71
2021/06/22 03:00:36;;;;;;;84.80;15.25;;;;;;;21.87;77.53;99267.64;1672236;84;21059;-72
2021/06/22 03:03:05;;;;;;;91.97;16.73;;;;;;;21.92;77.42;99267.83;1671422;85;21082;-73
2021/06/22 03:05:36;;;;;;;94.40;18.12;;;;;;;21.96;77.35;99264.39;1672283;85;21010;-72
2021/06/22 03:08:03;;;;;;;98.47;15.08;;;;;;;21.98;77.44;99271.80;1672300;85;21157;-72
2021/06/22 03:10:31;;;;;;;105.17;16.95;;;;;;;21.98;77.46;99276.01;1672212;85;21057;-71
2021/06/22 03:12:57;;;;;;;94.50;14.60;;;;;;;21.99;77.48;99270.62;1653582;85;21139;-72
2021/06/22 03:15:29;;;;;;;99.80;15.25;;;;;;;22.01;77.47;99277.41;1670784;85;20995;-72
2021/06/22 03:17:57;;;;;;;89.62;14.13;;;;;;;22.04;77.36;99270.17;1672228;85;21484;-72
2021/06/22 03:20:26;;;;;;;87.92;14.33;;;;;;;22.08;77.06;99275.18;1671517;85;22734;-72
2021/06/22 03:22:54;;;;;;;101.40;16.35;;;;;;;22.12;76.60;99287.80;1671657;85;21063;-72
2021/06/22 03:25:20;;;;;;;89.52;14.65;;;;;;;22.20;76.43;99289.97;1672439;85;21054;-71
2021/06/22 03:27:51;;;;;;;86.57;12.65;;;;;;;22.25;75.61;99294.56;1669336;85;21111;-72
2021/06/22 03:30:22;;;;;;;84.15;13.15;;;;;;;22.32;75.09;99299.35;1660952;85;21073;-72
2021/06/22 03:32:51;;;;;;;107.83;14.23;;;;;;;22.41;74.93;99298.11;1652155;85;21711;-71
2021/06/22 03:35:18;;;;;;;75.83;13.08;;;;;;;22.46;74.88;99299.91;1647586;86;21068;-72
2021/06/22 03:37:45;;;;;;;85.57;13.65;;;;;;;22.54;74.81;99303.47;1651869;86;21102;-71
2021/06/22 03:40:16;;;;;;;77.60;12.98;;;;;;;22.59;74.80;99303.05;1651246;86;21137;-71
2021/06/22 03:42:44;;;;;;;76.05;13.18;;;;;;;22.66;74.71;99307.05;1651310;86;21031;-71
2021/06/22 03:45:12;;;;;;;85.75;13.85;;;;;;;22.73;74.45;99303.61;1652720;86;22005;-71
2021/06/22 03:47:39;;;;;;;66.28;10.85;;;;;;;22.81;74.14;99305.77;1636388;86;21093;-72
2021/06/22 03:50:10;;;;;;;80.20;12.15;;;;;;;22.91;73.83;99304.73;1651596;86;21056;-72
2021/06/22 03:52:36;;;;;;;60.95;10.75;;;;;;;22.99;73.69;99307.69;1651135;86;21469;-72
2021/06/22 03:55:25;;;;;;;67.60;12.43;;;;;;;23.05;73.26;99296.20;1651648;86;21594;-72
2021/06/22 03:57:33;;;;;;;70.87;11.57;;;;;;;23.09;72.72;99297.58;1651279;86;21169;-71
2021/06/22 04:00:06;;;;;;;74.05;10.53;;;;;;;23.10;71.55;99294.36;1651674;85;21095;-71
2021/06/22 04:02:35;;;;;;;66.75;10.58;;;;;;;23.14;71.35;99295.74;1652592;85;21035;-71
2021/06/22 04:05:06;;;;;;;57.67;10.80;;;;;;;23.17;71.05;99289.29;1651793;86;21058;-71
2021/06/22 04:07:36;;;;;;;62.62;9.65;;;;;;;23.22;71.01;99286.64;1651952;86;21079;-72
2021/06/22 04:10:05;;;;;;;72.08;10.95;;;;;;;23.26;69.91;99284.62;1651680;86;21518;-71
2021/06/22 04:12:34;;;;;;;84.65;10.78;;;;;;;23.30;69.72;99278.97;1651973;85;21040;-71
2021/06/22 04:15:03;;;;;;;69.72;13.18;;;;;;;23.35;70.14;99284.16;1653974;86;21578;-71
2021/06/22 04:17:30;;;;;;;49.35;10.32;;;;;;;23.39;69.53;99282.72;1651357;86;21012;-70
2021/06/22 04:20:05;;;;;;;68.45;11.85;;;;;;;23.39;69.84;99289.12;1643565;86;21046;-71
2021/06/22 04:22:32;;;;;;;53.02;10.82;;;;;;;23.44;69.44;99288.70;1654257;85;21862;-70
2021/06/22 04:27:52;;;;;;;44.95;9.60;;;;;;;23.54;69.75;99307.31;1675195;85;21090;-71
2021/06/22 04:30:23;;;;;;;43.55;8.18;;;;;;;23.57;68.92;99311.50;1669634;85;21071;-71
2021/06/22 04:32:52;;;;;;;47.38;8.68;;;;;;;23.59;67.48;99308.28;1659600;85;21062;-72
2021/06/22 04:35:26;;;;;;;50.12;9.03;;;;;;;23.64;66.63;99304.21;1656210;86;21125;-71
2021/06/22 04:37:53;;;;;;;51.50;10.90;;;;;;;23.68;65.63;99309.18;1655878;86;21511;-72
2021/06/22 04:40:31;;;;;;;44.23;8.93;;;;;;;23.72;64.86;99307.15;1649320;86;21078;-73
2021/06/22 04:43:05;;;;;;;58.15;9.15;;;;;;;23.77;64.58;99310.11;1640024;84;21082;-72
2021/06/22 04:45:32;;;;;;;60.50;9.68;;;;;;;23.85;64.13;99309.45;1659201;85;21120;-71
2021/06/22 04:47:58;;;;;;;42.27;8.78;;;;;;;23.92;63.41;99300.92;1660287;85;21118;-72
2021/06/22 04:50:25;;;;;;;38.20;8.90;;;;;;;23.99;63.30;99300.84;1684868;85;20979;-71
2021/06/22 04:52:51;;;;;;;44.58;8.43;;;;;;;24.05;63.08;99297.77;1660369;85;21043;-72
2021/06/22 04:55:25;;;;;;;40.00;6.70;;;;;;;24.12;62.30;99296.11;1666661;85;21053;-72
2021/06/22 04:57:54;;;;;;;42.58;8.30;;;;;;;24.17;61.84;99288.64;1659416;85;21063;-74
2021/06/22 05:00:21;;;;;;;48.30;7.33;;;;;;;24.25;61.46;99294.38;1643029;85;21298;-72
2021/06/22 05:02:47;;;;;;;42.25;8.10;;;;;;;24.31;61.30;99287.05;1662102;85;21026;-73
2021/06/22 05:05:15;;;;;;;49.40;7.72;;;;;;;24.36;60.62;99287.19;1656308;85;21032;-72
2021/06/22 05:07:42;;;;;;;48.68;6.65;;;;;;;24.42;60.35;99288.94;1651345;85;21062;-72
2021/06/22 05:10:10;;;;;;;41.60;6.95;;;;;;;24.49;60.08;99277.59;1633671;85;21028;-71
2021/06/22 05:12:41;;;;;;;34.75;7.85;;;;;;;24.55;59.56;99280.12;1656802;85;21350;-71
2021/06/22 05:15:09;;;;;;;31.75;7.25;;;;;;;24.64;59.29;99280.20;1686263;84;21043;-70
2021/06/22 05:17:36;;;;;;;32.58;6.50;;;;;;;24.70;58.64;99277.13;1650378;85;21499;-71
2021/06/22 05:20:10;;;;;;;35.13;7.30;;;;;;;24.76;58.00;99275.42;1625746;86;21158;-71
2021/06/22 05:22:40;;;;;;;36.60;6.42;;;;;;;24.83;57.92;99278.75;1625308;88;21266;-71
2021/06/22 05:25:12;;;;;;;35.85;6.67;;;;;;;24.90;57.64;99270.80;1641843;86;21863;-71
2021/06/22 05:27:41;;;;;;;36.13;7.20;;;;;;;24.98;57.48;99279.95;1649731;86;21091;-72
2021/06/22 05:30:10;;;;;;;31.55;5.60;;;;;;;25.04;56.95;99287.50;1652488;86;21014;-73
2021/06/22 05:32:38;;;;;;;66.75;8.23;;;;;;;25.11;56.54;99283.00;1670498;83;20989;-72
2021/06/22 05:35:05;;;;;;;41.18;7.20;;;;;;;25.18;56.05;99289.14;1679134;84;21009;-72
2021/06/22 05:37:31;;;;;;;32.63;6.15;;;;;;;25.24;56.16;99292.45;1659545;85;21521;-72
2021/06/22 05:39:58;;;;;;;38.10;6.45;;;;;;;25.31;56.52;99297.78;1678822;85;21049;-73
2021/06/22 05:42:25;;;;;;;41.37;6.22;;;;;;;25.37;55.73;99294.66;1684297;84;21036;-73
2021/06/22 05:44:51;;;;;;;37.42;6.15;;;;;;;25.43;55.64;99303.43;1685658;85;21119;-72
2021/06/22 05:47:18;;;;;;;24.27;5.05;;;;;;;25.47;54.81;99303.55;1684697;85;21043;-72
2021/06/22 05:49:44;;;;;;;26.52;5.00;;;;;;;25.52;54.97;99300.87;1685183;85;21120;-72
2021/06/22 05:52:10;;;;;;;31.37;5.70;;;;;;;25.58;55.33;99301.97;1685841;85;21078;-72
2021/06/22 05:54:37;;;;;;;45.75;6.67;;;;;;;25.66;55.67;99297.02;1685617;85;21496;-73
2021/06/22 05:57:07;;;;;;;34.98;6.00;;;;;;;25.74;55.48;99297.70;1685880;85;20991;-71
2021/06/22 05:59:34;;;;;;;36.42;5.95;;;;;;;25.79;54.62;99294.99;1654279;85;21005;-73
2021/06/22 06:02:02;;;;;;;32.30;6.28;;;;;;;25.84;54.43;99286.03;1651900;86;21596;-71
2021/06/22 06:04:32;;;;;;;34.50;6.28;;;;;;;25.88;54.35;99291.78;1652993;85;21090;-71
2021/06/22 06:07:03;;;;;;;32.08;6.83;;;;;;;25.94;54.56;99285.64;1650497;85;21088;-71
2021/06/22 06:09:31;;;;;;;38.48;5.97;;;;;;;25.99;54.38;99280.91;1652993;86;21130;-72
2021/06/22 06:11:57;;;;;;;31.17;6.10;;;;;;;26.04;53.69;99285.25;1652911;86;21028;-71
2021/06/22 06:14:25;;;;;;;29.85;5.65;;;;;;;26.08;53.67;99285.38;1652585;86;21118;-72
2021/06/22 06:16:52;;;;;;;30.70;5.83;;;;;;;26.14;54.28;99288.48;1652084;86;21091;-72
2021/06/22 06:19:19;;;;;;;24.05;4.92;;;;;;;26.19;53.63;99292.21;1652347;86;21497;-71
2021/06/22 06:21:46;;;;;;;27.17;5.28;;;;;;;26.24;53.90;99288.88;1650235;86;21381;-72
2021/06/22 06:24:14;;;;;;;25.12;4.65;;;;;;;26.30;53.51;99286.36;1650376;86;21580;-73
2021/06/22 06:26:52;;;;;;;24.18;3.85;;;;;;;26.35;52.68;99292.14;1650260;86;21112;-71
2021/06/22 06:29:20;;;;;;;20.75;4.08;;;;;;;26.38;52.78;99292.67;1649988;86;21039;-72
2021/06/22 06:31:51;;;;;;;22.17;4.42;;;;;;;26.42;52.46;99277.87;1654225;85;21049;-72
2021/06/22 06:34:21;;;;;;;33.15;5.90;;;;;;;26.46;52.62;99267.28;1671340;85;21627;-71
2021/06/22 06:36:52;;;;;;;28.25;4.55;;;;;;;26.55;52.98;99254.59;1682246;84;21044;-72
2021/06/22 06:39:20;;;;;;;25.25;4.75;;;;;;;26.60;52.77;99253.48;1677477;84;21128;-73
2021/06/22 06:41:47;;;;;;;21.48;4.37;;;;;;;26.65;52.27;99260.63;1669059;86;21039;-71
2021/06/22 06:44:16;;;;;;;30.02;4.53;;;;;;;26.72;52.34;99264.72;1669350;85;20995;-72
2021/06/22 06:46:43;;;;;;;23.00;5.03;;;;;;;26.79;52.28;99264.36;1716748;83;20988;-72
2021/06/22 06:49:13;;;;;;;26.07;5.08;;;;;;;26.86;52.22;99269.25;1725378;82;21091;-71
2021/06/22 06:51:40;;;;;;;23.00;4.70;;;;;;;26.90;50.84;99269.78;1725786;82;21231;-71
2021/06/22 06:54:06;;;;;;;28.10;4.85;;;;;;;26.95;50.56;99259.36;1725613;82;21086;-71
2021/06/22 06:56:34;;;;;;;11.25;3.70;;;;;;;26.96;50.90;99270.23;1726336;82;20999;-71
2021/06/22 06:59:09;;;;;;;26.05;3.87;;;;;;;27.02;51.21;99270.53;1719290;83;21031;-72
2021/06/22 07:01:37;;;;;;;20.57;4.95;;;;;;;27.11;51.10;99269.91;1726128;82;21043;-73
2021/06/22 07:04:03;;;;;;;22.02;4.25;;;;;;;27.20;51.31;99282.81;1726155;82;21499;-71
2021/06/22 07:06:29;;;;;;;21.65;4.22;;;;;;;27.30;51.85;99297.12;1726159;82;21018;-74
2021/06/22 07:08:57;;;;;;;26.17;4.10;;;;;;;27.41;51.41;99304.73;1725850;83;21526;-71
2021/06/22 07:11:23;;;;;;;23.05;4.62;;;;;;;27.50;51.75;99311.16;1726213;83;21019;-72
2021/06/22 07:13:52;;;;;;;24.57;5.12;;;;;;;27.61;50.60;99312.31;1725902;83;21507;-71
2021/06/22 07:16:20;;;;;;;24.47;4.55;;;;;;;27.71;51.00;99311.88;1720473;83;21043;-71
2021/06/22 07:18:47;;;;;;;29.02;6.17;;;;;;;27.77;50.96;99313.57;1725827;82;21043;-72
2021/06/22 07:21:24;;;;;;;39.42;6.67;;;;;;;27.81;50.44;99307.18;1725564;82;21158;-71
2021/06/22 07:23:52;;;;;;;30.30;5.10;;;;;;;27.85;50.26;99314.16;1725855;82;21019;-73
2021/06/22 07:26:19;;;;;;;26.10;4.92;;;;;;;27.87;50.19;99315.33;1704437;83;21061;-70
2021/06/22 07:28:51;;;;;;;23.30;4.20;;;;;;;27.89;50.63;99308.60;1656664;86;21106;-72
2021/06/22 07:31:23;;;;;;;23.67;4.08;;;;;;;27.91;49.46;99312.40;1668824;84;20999;-72
2021/06/22 07:33:50;;;;;;;20.55;3.83;;;;;;;27.89;49.01;99313.46;1662101;84;21059;-72
2021/06/22 07:36:18;;;;;;;32.45;4.72;;;;;;;27.82;49.03;99313.80;1661161;85;21061;-71
2021/06/22 07:38:45;;;;;;;32.90;4.58;;;;;;;27.79;49.65;99316.75;1661052;85;21027;-70
2021/06/22 07:41:11;;;;;;;19.17;3.02;;;;;;;27.83;49.97;99314.61;1639221;84;21542;-72
2021/06/22 07:43:39;;;;;;;20.12;3.72;;;;;;;27.90;50.07;99319.28;1677792;83;21040;-71
2021/06/22 07:46:07;;;;;;;24.05;4.20;;;;;;;28.02;50.05;99319.17;1678443;85;21054;-71
2021/06/22 07:48:36;;;;;;;25.80;4.58;;;;;;;28.14;49.53;99321.88;1678790;85;21082;-71
2021/06/22 07:51:03;;;;;;;23.12;3.83;;;;;;;28.27;49.22;99311.39;1689830;83;21106;-71
2021/06/22 07:53:30;;;;;;;34.58;6.20;;;;;;;28.41;48.94;99316.50;1700907;83;21991;-73
2021/06/22 07:55:57;;;;;;;27.32;4.03;;;;;;;28.55;49.74;99318.93;1707091;83;21003;-72
2021/06/22 07:58:23;;;;;;;22.52;3.98;;;;;;;28.66;49.47;99307.26;1706605;83;21075;-72
2021/06/22 08:00:59;;;;;;;35.50;4.47;;;;;;;28.79;49.20;99307.30;1679970;85;21079;-71
2021/06/22 08:03:28;;;;;;;22.30;4.65;;;;;;;28.89;48.34;99300.31;1681355;85;21027;-72
2021/06/22 08:05:55;;;;;;;36.38;5.08;;;;;;;28.90;47.81;99304.11;1677939;85;21047;-72
2021/06/22 08:08:26;;;;;;;28.77;6.37;;;;;;;28.90;47.43;99301.28;1674187;85;21547;-71
2021/06/22 08:10:56;;;;;;;31.02;5.33;;;;;;;28.92;47.12;99300.82;1677266;85;21625;-73
2021/06/22 08:13:35;;;;;;;26.77;6.33;;;;;;;28.94;46.71;99296.11;1678176;83;21094;-72
2021/06/22 08:16:06;;;;;;;45.67;5.13;;;;;;;29.01;46.51;99297.34;1673144;85;21006;-71
2021/06/22 08:18:33;;;;;;;42.85;6.78;;;;;;;29.07;45.17;99291.91;1675702;85;21684;-71
2021/06/22 08:21:04;;;;;;;74.27;6.67;;;;;;;29.10;45.37;99293.22;1674215;83;21023;-71
2021/06/22 08:23:32;;;;;;;57.08;7.45;;;;;;;29.18;45.53;99294.38;1673474;85;21063;-71
2021/06/22 08:26:00;;;;;;;57.90;8.43;;;;;;;29.26;45.01;99303.62;1674075;85;21028;-72
2021/06/22 08:28:26;;;;;;;57.83;9.03;;;;;;;29.34;44.43;99305.61;1675538;85;21055;-71
2021/06/22 08:30:52;;;;;;;63.40;10.38;;;;;;;29.43;44.84;99312.63;1678999;83;21119;-72
2021/06/22 08:33:20;;;;;;;72.35;10.05;;;;;;;29.49;44.30;99320.73;1670172;83;21664;-73
2021/06/22 08:35:48;;;;;;;69.07;9.85;;;;;;;29.51;44.79;99316.81;1673830;85;21095;-71
2021/06/22 08:38:16;;;;;;;54.55;8.25;;;;;;;29.60;44.31;99321.17;1672039;85;21028;-73
2021/06/22 08:40:45;;;;;;;54.13;9.55;;;;;;;29.71;45.20;99317.18;1675143;85;21629;-70
2021/06/22 08:43:12;;;;;;;78.67;10.15;;;;;;;29.81;45.15;99311.77;1707917;83;21529;-72
2021/06/22 08:45:40;;;;;;;75.45;11.60;;;;;;;29.93;44.45;99307.91;1709529;83;20969;-72
2021/06/22 08:48:09;;;;;;;85.28;12.58;;;;;;;30.04;45.55;99300.44;1661226;84;21341;-71
2021/06/22 08:50:40;;;;;;;73.67;9.55;;;;;;;30.16;45.46;99294.53;1660164;86;21530;-72
2021/06/22 08:53:07;;;;;;;87.25;13.25;;;;;;;30.28;44.58;99301.44;1658156;86;21051;-72
2021/06/22 08:55:33;;;;;;;97.80;12.07;;;;;;;30.37;44.43;99293.77;1658421;86;21112;-72
2021/06/22 08:58:07;;;;;;;107.52;16.00;;;;;;;30.41;43.08;99307.03;1658737;86;21106;-73
2021/06/22 09:00:39;;;;;;;83.70;13.32;;;;;;;30.33;42.88;99303.69;1658524;84;21015;-72
2021/06/22 09:03:11;;;;;;;121.28;15.88;;;;;;;30.31;43.96;99301.30;1658572;86;21005;-72
2021/06/22 09:05:42;;;;;;;;;;;;;;;30.36;43.00;99305.59;1660894;86;21063;-72
2021/06/22 09:08:27;;;;;;;134.07;17.60;;;;;;;30.43;43.00;99300.27;1656253;86;21602;-72
2021/06/22 09:11:05;;;;;;;138.07;20.45;;;;;;;30.49;41.79;99304.89;1658577;84;21499;-72
2021/06/22 09:13:32;;;;;;;208.28;24.85;;;;;;;30.50;41.15;99302.84;1657791;86;21035;-71
2021/06/22 09:16:00;;;;;;;155.27;22.45;;;;;;;30.51;40.72;99305.04;1659117;86;21547;-71
2021/06/22 09:18:39;;;;;;;137.77;20.37;;;;;;;30.52;40.09;99306.64;1658738;86;21702;-72
2021/06/22 09:21:08;;;;;;;155.70;19.42;;;;;;;30.54;40.25;99301.30;1658827;85;21554;-73
2021/06/22 09:23:37;;;;;;;144.15;18.35;;;;;;;30.58;40.76;99293.41;1652427;84;21059;-73
2021/06/22 09:29:10;;;;;;;139.50;19.05;;;;;;;30.74;41.32;99288.13;1658591;85;21097;-71
2021/06/22 09:32:00;;;;;;;126.97;18.07;;;;;;;30.82;41.28;99294.34;1646545;84;21542;-70
2021/06/22 09:34:28;;;;;;;139.72;18.90;;;;;;;30.88;40.18;99295.96;1658457;85;21158;-71
2021/06/22 09:36:57;;;;;;;144.28;19.90;;;;;;;30.90;40.43;99292.00;1658185;85;21496;-71
2021/06/22 09:39:25;;;;;;;121.62;16.73;;;;;;;30.92;40.22;99288.06;1659188;85;21547;-70
2021/06/22 09:41:55;;;;;;;138.07;20.17;;;;;;;30.96;39.91;99284.46;1654741;85;22150;-71
2021/06/22 09:44:27;;;;;;;140.28;19.23;;;;;;;30.98;39.20;99289.06;1658691;84;21022;-71
2021/06/22 09:46:58;;;;;;;156.10;18.30;;;;;;;31.00;38.98;99287.94;1711284;83;21705;-71
2021/06/22 09:49:31;;;;;;;108.07;17.80;;;;;;;31.03;39.73;99290.48;1713636;83;21031;-71
2021/06/22 09:52:04;;;;;;;167.43;21.20;;;;;;;31.06;39.77;99278.97;1713415;83;21013;-70
2021/06/22 09:54:50;;;;;;;162.40;21.10;;;;;;;31.13;39.01;99289.88;1661078;84;21622;-71
2021/06/22 09:57:25;;;;;;;170.55;21.37;;;;;;;31.18;38.79;99294.95;1652581;86;21020;-71
2021/06/22 10:00:08;;;;;;;126.95;18.90;;;;;;;31.18;37.10;99287.84;1654833;86;21174;-71
2021/06/22 10:02:55;;;;;;;144.25;19.95;;;;;;;31.20;37.84;99284.68;1686722;84;21057;-70
2021/06/22 10:05:22;;;;;;;129.32;17.95;;;;;;;31.27;37.93;99282.82;1686149;85;21074;-71
2021/06/22 10:08:01;;;;;;;139.95;17.73;;;;;;;31.34;37.09;99280.45;1677582;84;21566;-71
2021/06/22 10:10:36;;;;;;;126.75;17.85;;;;;;;31.39;36.27;99277.61;1682914;83;21018;-71
2021/06/22 10:13:08;;;;;;;135.65;18.00;;;;;;;31.43;36.13;99284.61;1682413;83;21054;-70
2021/06/22 10:15:34;;;;;;;127.62;20.32;;;;;;;31.48;35.88;99281.80;1685098;85;20991;-71
2021/06/22 10:18:00;;;;;;;120.82;19.50;;;;;;;31.50;36.12;99281.47;1668169;85;21638;-71
2021/06/22 10:20:27;;;;;;;114.57;19.87;;;;;;;31.55;36.03;99275.15;1687343;85;21038;-72
2021/06/22 10:22:54;;;;;;;135.90;19.23;;;;;;;31.56;34.90;99271.03;1690214;83;21082;-71
2021/06/22 10:25:56;;;;;;;161.22;19.12;;;;;;;31.56;35.69;99268.84;1690482;83;21535;-71
2021/06/22 10:28:29;;;;;;;110.68;17.95;;;;;;;31.59;34.95;99267.88;1688132;84;21143;-71
2021/06/22 10:31:00;;;;;;;124.50;18.35;;;;;;;31.62;35.41;99264.71;1688368;83;21038;-71
2021/06/22 10:33:27;;;;;;;139.15;18.55;;;;;;;31.67;36.06;99268.35;1695176;82;21006;-71
2021/06/22 10:36:01;;;;;;;131.30;17.98;;;;;;;31.73;35.19;99272.80;1693557;84;21049;-70
2021/06/22 10:38:37;;;;;;;123.87;16.82;;;;;;;31.74;35.03;99265.83;1688393;84;22037;-70
2021/06/22 10:41:04;;;;;;;135.25;17.05;;;;;;;31.78;34.90;99265.05;1696615;84;21090;-71
2021/06/22 10:43:40;;;;;;;126.38;17.10;;;;;;;31.82;34.49;99258.55;1695931;84;21090;-71
2021/06/22 10:46:08;;;;;;;146.28;19.23;;;;;;;31.83;34.45;99265.19;1696571;84;21011;-72
2021/06/22 10:48:45;;;;;;;132.43;19.40;;;;;;;31.85;33.81;99262.52;1692594;84;20999;-72
2021/06/22 10:51:43;;;;;;;133.40;18.50;;;;;;;31.87;34.72;99264.26;1700836;82;21514;-69
2021/06/22 10:54:12;;;;;;;118.67;17.12;;;;;;;31.92;34.76;99262.20;1713851;82;21042;-73
2021/06/22 10:56:44;;;;;;;125.85;18.90;;;;;;;31.94;34.25;99258.22;1708637;82;21483;-72
2021/06/22 10:59:20;;;;;;;123.38;17.62;;;;;;;31.95;34.12;99263.44;1694401;82;21561;-72
2021/06/22 11:02:01;;;;;;;143.70;18.15;;;;;;;31.97;35.00;99259.34;1713355;82;21548;-72
2021/06/22 11:04:27;;;;;;;129.30;18.52;;;;;;;32.01;35.34;99256.52;1708111;82;21181;-70
2021/06/22 11:07:12;;;;;;;116.97;17.82;;;;;;;32.08;34.82;99256.83;1699176;83;21002;-71
2021/06/22 11:09:41;;;;;;;104.92;14.87;;;;;;;32.10;35.02;99257.14;1696994;84;21038;-72
2021/06/22 11:12:24;;;;;;;130.57;18.60;;;;;;;32.20;35.00;99256.48;1699801;84;21137;-72
2021/06/22 11:15:07;;;;;;;131.50;17.67;;;;;;;32.29;35.37;99259.95;1699700;84;21085;-71
2021/06/22 11:17:45;;;;;;;120.17;16.80;;;;;;;32.39;35.47;99259.30;1691836;84;21170;-72
2021/06/22 11:20:14;;;;;;;136.30;19.15;;;;;;;32.43;35.47;99255.66;1691886;84;21081;-70
2021/06/22 11:23:09;;;;;;;142.80;19.42;;;;;;;32.47;35.18;99249.14;1691938;84;21523;-72
2021/06/22 11:26:03;;;;;;;134.55;20.00;;;;;;;32.48;35.13;99260.71;1691371;84;21014;-72
2021/06/22 11:28:52;;;;;;;128.97;19.32;;;;;;;32.43;34.63;99254.23;1664452;86;21081;-72
2021/06/22 11:31:41;;;;;;;132.87;21.75;;;;;;;32.43;35.11;99258.50;1672877;83;21069;-71
2021/06/22 11:34:32;;;;;;;169.45;23.85;;;;;;;32.45;34.32;99262.30;1695921;83;21001;-71
2021/06/22 11:37:09;;;;;;;143.90;21.33;;;;;;;32.46;33.26;99267.52;1695009;83;21486;-71